createdAt,value
2018-10-17T00:00:39.270Z,9.20
2018-10-17T00:03:09.081Z,9.03
2018-10-17T00:05:39.239Z,8.20
2018-10-17T00:08:09.058Z,8.77
2018-10-17T00:10:39.078Z,8.43
2018-10-17T00:13:09.065Z,8.13
2018-10-17T00:15:39.002Z,9.10
2018-10-17T00:18:08.883Z,8.70
2018-10-17T00:20:38.970Z,8.90
2018-10-17T00:23:08.953Z,8.70
2018-10-17T00:25:38.861Z,8.37
2018-10-17T00:28:08.651Z,8.97
2018-10-17T00:30:38.797Z,9.90
2018-10-17T00:33:08.625Z,8.63
2018-10-17T00:35:38.536Z,9.23
2018-10-17T00:38:08.374Z,9.20
2018-10-17T00:40:38.429Z,9.43
2018-10-17T00:43:09.263Z,8.50
2018-10-17T00:45:39.069Z,8.70
2018-10-17T00:48:08.961Z,8.37
2018-10-17T00:50:38.881Z,8.73
2018-10-17T00:53:08.814Z,8.80
2018-10-17T00:55:38.953Z,8.17
2018-10-17T00:58:08.743Z,8.37
2018-10-17T01:00:38.669Z,8.77
2018-10-17T01:03:08.472Z,8.37
2018-10-17T01:05:38.221Z,8.00
2018-10-17T01:08:08.111Z,8.50
2018-10-17T01:10:38.019Z,8.27
2018-10-17T01:13:07.953Z,8.67
2018-10-17T01:15:37.834Z,8.30
2018-10-17T01:18:07.808Z,8.43
2018-10-17T01:20:37.704Z,9.47
2018-10-17T01:23:07.561Z,8.23
2018-10-17T01:25:37.494Z,9.07
2018-10-17T01:28:07.511Z,9.07
2018-10-17T01:30:37.435Z,8.70
2018-10-17T01:33:07.716Z,8.27
2018-10-17T01:35:37.555Z,8.50
2018-10-17T01:38:07.527Z,7.93
2018-10-17T01:40:37.676Z,8.43
2018-10-17T01:43:07.725Z,8.47
2018-10-17T01:45:37.497Z,9.00
2018-10-17T01:48:07.711Z,8.40
2018-10-17T01:50:37.647Z,8.90
2018-10-17T01:53:07.516Z,8.97
2018-10-17T01:55:37.693Z,9.07
2018-10-17T01:58:07.511Z,9.17
2018-10-17T02:00:37.438Z,8.03
2018-10-17T02:03:07.407Z,8.30
2018-10-17T02:05:37.522Z,8.27
2018-10-17T02:08:07.573Z,7.77
2018-10-17T02:10:37.687Z,8.73
2018-10-17T02:13:08.124Z,8.40
2018-10-17T02:15:37.946Z,8.30
2018-10-17T02:18:08.014Z,7.80
2018-10-17T02:20:37.961Z,7.90
2018-10-17T02:23:08.110Z,7.80
2018-10-17T02:25:38.061Z,7.57
2018-10-17T02:28:07.928Z,7.43
2018-10-17T02:30:37.905Z,7.20
2018-10-17T02:33:08.021Z,7.70
2018-10-17T02:35:37.889Z,8.10
2018-10-17T02:38:07.766Z,7.93
2018-10-17T02:40:37.635Z,7.67
2018-10-17T02:43:07.699Z,8.20
2018-10-17T02:45:37.602Z,7.80
2018-10-17T02:48:07.629Z,7.70
2018-10-17T02:50:37.581Z,7.80
2018-10-17T02:53:07.678Z,8.00
2018-10-17T02:55:37.489Z,7.37
2018-10-17T02:58:07.336Z,7.30
2018-10-17T03:00:37.235Z,7.67
2018-10-17T03:03:07.320Z,7.63
2018-10-17T03:05:37.113Z,7.57
2018-10-17T03:08:07.222Z,7.47
2018-10-17T03:10:37.184Z,7.27
2018-10-17T03:13:07.555Z,7.60
2018-10-17T03:15:37.474Z,7.80
2018-10-17T03:18:07.376Z,7.70
2018-10-17T03:20:38.100Z,7.67
2018-10-17T03:23:08.011Z,7.50
2018-10-17T03:25:37.946Z,8.30
2018-10-17T03:28:07.834Z,8.50
2018-10-17T03:30:37.710Z,8.77
2018-10-17T03:33:07.789Z,8.03
2018-10-17T03:35:37.884Z,7.50
2018-10-17T03:38:07.956Z,8.13
2018-10-17T03:40:38.021Z,7.73
2018-10-17T03:43:07.913Z,8.33
2018-10-17T03:45:37.913Z,8.40
2018-10-17T03:48:07.844Z,7.63
2018-10-17T03:50:37.913Z,7.53
2018-10-17T03:53:07.833Z,7.40
2018-10-17T03:55:37.926Z,7.90
2018-10-17T03:58:07.915Z,7.30
2018-10-17T04:00:37.786Z,7.97
2018-10-17T04:03:07.893Z,7.17
2018-10-17T04:05:37.772Z,7.57
2018-10-17T04:08:07.624Z,7.50
2018-10-17T04:10:37.571Z,7.87
2018-10-17T04:13:07.652Z,8.67
2018-10-17T04:15:37.566Z,8.40
2018-10-17T04:18:07.458Z,7.90
2018-10-17T04:20:37.492Z,7.43
2018-10-17T04:23:07.406Z,8.03
2018-10-17T04:25:37.328Z,7.63
2018-10-17T04:28:07.282Z,7.73
2018-10-17T04:30:37.374Z,8.17
2018-10-17T04:33:07.313Z,8.03
2018-10-17T04:35:37.197Z,7.47
2018-10-17T04:38:07.265Z,7.73
2018-10-17T04:40:37.112Z,7.93
2018-10-17T04:43:07.107Z,7.23
2018-10-17T04:45:37.324Z,7.87
2018-10-17T04:48:07.293Z,7.00
2018-10-17T04:50:37.149Z,7.93
2018-10-17T04:53:07.121Z,8.10
2018-10-17T04:55:36.875Z,8.30
2018-10-17T04:58:07.061Z,8.37
2018-10-17T05:00:36.911Z,8.57
2018-10-17T05:03:07.782Z,8.80
2018-10-17T05:05:37.570Z,8.70
2018-10-17T05:08:08.065Z,8.40
2018-10-17T05:10:37.961Z,8.07
2018-10-17T05:13:08.194Z,8.00
2018-10-17T05:15:37.920Z,8.70
2018-10-17T05:18:07.869Z,9.37
2018-10-17T05:20:37.644Z,8.83
2018-10-17T05:23:07.702Z,8.87
2018-10-17T05:25:37.940Z,8.77
2018-10-17T05:28:07.957Z,8.00
2018-10-17T05:30:37.953Z,8.23
2018-10-17T05:33:08.179Z,8.90
2018-10-17T05:35:38.131Z,9.33
2018-10-17T05:38:08.236Z,9.00
2018-10-17T05:40:37.983Z,9.30
2018-10-17T05:43:08.050Z,8.60
2018-10-17T05:45:38.024Z,8.57
2018-10-17T05:48:07.877Z,8.97
2018-10-17T05:50:37.821Z,9.10
2018-10-17T05:53:07.784Z,9.40
2018-10-17T05:55:37.693Z,9.53
2018-10-17T05:58:07.892Z,9.77
2018-10-17T06:00:37.736Z,9.83
2018-10-17T06:03:08.273Z,9.47
2018-10-17T06:05:38.184Z,9.47
2018-10-17T06:08:07.962Z,9.83
2018-10-17T06:10:37.842Z,9.60
2018-10-17T06:13:07.962Z,9.47
2018-10-17T06:15:37.714Z,10.03
2018-10-17T06:18:07.816Z,10.57
2018-10-17T06:20:37.692Z,11.10
2018-10-17T06:23:07.590Z,10.57
2018-10-17T06:25:37.525Z,10.83
2018-10-17T06:28:07.369Z,10.27
2018-10-17T06:30:37.468Z,10.47
2018-10-17T06:33:07.225Z,10.60
2018-10-17T06:35:37.188Z,11.43
2018-10-17T06:38:07.517Z,11.27
2018-10-17T06:40:37.624Z,10.70
2018-10-17T06:43:07.825Z,11.73
2018-10-17T06:45:37.867Z,11.40
2018-10-17T06:48:07.849Z,11.20
2018-10-17T06:50:38.134Z,10.97
2018-10-17T06:53:08.467Z,11.50
2018-10-17T06:55:38.305Z,10.87
2018-10-17T06:58:08.470Z,10.93
2018-10-17T07:00:38.345Z,11.23
2018-10-17T07:03:08.325Z,11.87
2018-10-17T07:05:38.157Z,11.40
2018-10-17T07:08:08.049Z,11.40
2018-10-17T07:10:38.084Z,11.13
2018-10-17T07:13:07.682Z,12.20
2018-10-17T07:15:37.612Z,10.93
2018-10-17T07:18:08.224Z,11.40
2018-10-17T07:20:38.625Z,11.90
2018-10-17T07:23:09.044Z,10.80
2018-10-17T07:25:39.149Z,11.33
2018-10-17T07:28:09.131Z,10.43
2018-10-17T07:30:38.974Z,11.20
2018-10-17T07:33:09.100Z,10.30
2018-10-17T07:35:39.213Z,10.60
2018-10-17T07:38:09.143Z,11.20
2018-10-17T07:40:39.160Z,10.83
2018-10-17T07:43:08.937Z,10.63
2018-10-17T07:45:39.300Z,10.77
2018-10-17T07:48:09.436Z,10.20
2018-10-17T07:50:39.163Z,10.40
2018-10-17T07:53:09.193Z,10.40
2018-10-17T07:55:39.150Z,9.93
2018-10-17T07:58:09.109Z,10.33
2018-10-17T08:00:39.353Z,9.67
2018-10-17T08:03:09.436Z,9.47
2018-10-17T08:05:39.333Z,9.17
2018-10-17T08:08:09.291Z,9.70
2018-10-17T08:10:39.371Z,9.37
2018-10-17T08:13:09.394Z,8.37
2018-10-17T08:15:39.262Z,9.10
2018-10-17T08:18:09.423Z,9.40
2018-10-17T08:20:39.345Z,9.37
2018-10-17T08:23:09.480Z,9.30
2018-10-17T08:25:39.672Z,9.47
2018-10-17T08:28:09.740Z,9.97
2018-10-17T08:30:39.885Z,10.87
2018-10-17T08:33:10.141Z,10.53
2018-10-17T08:35:40.516Z,9.40
2018-10-17T08:38:10.921Z,9.67
2018-10-17T08:40:40.795Z,9.60
2018-10-17T08:43:10.705Z,10.07
2018-10-17T08:45:40.824Z,10.67
2018-10-17T08:48:10.785Z,10.50
2018-10-17T08:50:41.460Z,10.67
2018-10-17T08:53:11.470Z,10.77
2018-10-17T08:55:41.342Z,11.20
2018-10-17T08:58:11.302Z,11.20
2018-10-17T09:00:41.128Z,11.47
2018-10-17T09:03:11.410Z,11.73
2018-10-17T09:05:52.471Z,11.77
2018-10-17T09:08:22.436Z,12.10
2018-10-17T09:10:52.357Z,11.53
2018-10-17T09:13:22.554Z,12.27
2018-10-17T09:15:52.604Z,13.73
2018-10-17T09:20:47.374Z,13.03
2018-10-17T09:23:17.385Z,13.30
2018-10-17T09:25:47.385Z,13.07
2018-10-17T09:28:17.688Z,12.00
2018-10-17T09:30:47.834Z,12.83
2018-10-17T09:33:18.004Z,12.37
2018-10-17T09:35:47.945Z,12.93
2018-10-17T09:38:18.044Z,11.80
2018-10-17T09:40:48.155Z,12.20
2018-10-17T09:43:18.389Z,13.30
2018-10-17T09:45:48.326Z,12.77
2018-10-17T09:48:18.222Z,13.53
2018-10-17T09:50:48.036Z,12.33
2018-10-17T09:53:18.212Z,12.10
2018-10-17T09:55:48.027Z,12.63
2018-10-17T09:58:17.966Z,13.77
2018-10-17T10:00:53.019Z,13.13
2018-10-17T10:03:22.940Z,12.53
2018-10-17T10:05:52.899Z,12.27
2018-10-17T10:08:23.235Z,12.13
2018-10-17T10:10:53.302Z,12.73
2018-10-17T10:13:23.480Z,12.43
2018-10-17T10:15:53.462Z,11.90
2018-10-17T10:18:23.435Z,11.63
2018-10-17T10:20:53.628Z,13.07
2018-10-17T10:23:23.561Z,11.00
2018-10-17T10:25:53.413Z,10.20
2018-10-17T10:28:23.603Z,11.80
2018-10-17T10:30:53.397Z,11.37
2018-10-17T10:33:23.222Z,11.97
2018-10-17T10:35:53.325Z,11.30
2018-10-17T10:38:23.340Z,12.33
2018-10-17T10:40:53.469Z,11.93
2018-10-17T10:43:23.812Z,12.67
2018-10-17T10:45:53.683Z,12.57
2018-10-17T10:48:23.788Z,16.37
2018-10-17T10:50:53.748Z,15.93
2018-10-17T10:53:23.702Z,14.00
2018-10-17T10:55:53.707Z,14.53
2018-10-17T10:58:23.989Z,15.37
2018-10-17T11:00:53.668Z,14.73
2018-10-17T11:03:23.887Z,13.77
2018-10-17T11:05:54.085Z,15.47
2018-10-17T11:08:24.196Z,15.33
2018-10-17T11:10:54.897Z,17.80
2018-10-17T11:13:25.357Z,20.47
2018-10-17T11:15:55.437Z,18.30
2018-10-17T11:18:25.572Z,17.73
2018-10-17T11:20:55.573Z,17.67
2018-10-17T11:23:25.381Z,18.30
2018-10-17T11:25:55.760Z,20.97
2018-10-17T11:28:26.046Z,19.63
2018-10-17T11:30:56.003Z,18.23
2018-10-17T11:33:25.839Z,19.93
2018-10-17T11:35:55.804Z,20.23
2018-10-17T11:38:25.718Z,23.33
2018-10-17T11:40:55.796Z,20.23
2018-10-17T11:43:25.787Z,16.80
2018-10-17T11:45:55.760Z,16.93
2018-10-17T11:48:25.693Z,17.27
2018-10-17T11:50:55.627Z,17.43
2018-10-17T11:53:25.526Z,18.20
2018-10-17T11:55:55.591Z,18.30
2018-10-17T11:58:25.630Z,16.37
2018-10-17T12:00:55.875Z,17.80
2018-10-17T12:03:25.954Z,18.97
2018-10-17T12:05:55.896Z,20.07
2018-10-17T12:08:25.609Z,19.30
2018-10-17T12:10:55.628Z,20.40
2018-10-17T12:13:25.431Z,16.83
2018-10-17T12:15:55.464Z,17.53
2018-10-17T12:18:25.427Z,18.70
2018-10-17T12:20:55.378Z,15.67
2018-10-17T12:23:25.311Z,18.60
2018-10-17T12:25:55.479Z,16.20
2018-10-17T12:28:25.527Z,16.43
2018-10-17T12:30:55.520Z,14.57
2018-10-17T12:33:25.600Z,16.63
2018-10-17T12:35:55.621Z,15.43
2018-10-17T12:38:25.528Z,17.20
2018-10-17T12:40:55.678Z,17.80
2018-10-17T12:43:25.628Z,16.77
2018-10-17T12:45:55.996Z,16.50
2018-10-17T12:48:25.916Z,16.93
2018-10-17T12:50:55.806Z,16.43
2018-10-17T12:53:25.852Z,19.30
2018-10-17T12:55:55.930Z,16.03
2018-10-17T12:58:25.745Z,17.70
2018-10-17T13:00:55.958Z,14.97
2018-10-17T13:03:26.256Z,15.87
2018-10-17T13:05:56.220Z,13.90
2018-10-17T13:08:26.175Z,15.20
2018-10-17T13:10:56.121Z,14.73
2018-10-17T13:13:26.147Z,15.23
2018-10-17T13:15:56.053Z,16.97
2018-10-17T13:18:26.014Z,19.00
2018-10-17T13:20:55.804Z,19.00
2018-10-17T13:23:25.730Z,16.00
2018-10-17T13:25:55.688Z,16.23
2018-10-17T13:28:25.625Z,13.63
2018-10-17T13:30:55.687Z,17.43
2018-10-17T13:33:25.489Z,17.90
2018-10-17T13:35:55.777Z,21.37
2018-10-17T13:38:25.720Z,24.00
2018-10-17T13:40:55.699Z,19.47
2018-10-17T13:43:25.847Z,18.13
2018-10-17T13:45:55.779Z,20.20
2018-10-17T13:48:25.773Z,20.80
2018-10-17T13:50:56.039Z,19.53
2018-10-17T13:53:26.115Z,20.70
2018-10-17T13:55:56.035Z,27.90
2018-10-17T13:58:25.958Z,26.37
2018-10-17T14:00:55.822Z,23.30
2018-10-17T14:03:25.681Z,22.33
2018-10-17T14:05:55.688Z,22.87
2018-10-17T14:08:25.701Z,23.43
2018-10-17T14:10:55.600Z,24.17
2018-10-17T14:13:25.994Z,22.20
2018-10-17T14:15:55.745Z,22.13
2018-10-17T14:18:25.791Z,16.73
2018-10-17T14:20:55.797Z,21.03
2018-10-17T14:23:25.670Z,22.37
2018-10-17T14:25:55.623Z,21.37
2018-10-17T14:28:25.982Z,21.47
2018-10-17T14:30:56.052Z,21.73
2018-10-17T14:33:26.125Z,20.97
2018-10-17T14:35:56.259Z,21.63
2018-10-17T14:38:26.179Z,22.00
2018-10-17T14:40:56.216Z,21.10
2018-10-17T14:43:26.125Z,20.40
2018-10-17T14:45:55.989Z,20.77
2018-10-17T14:48:26.119Z,19.83
2018-10-17T14:50:56.030Z,20.00
2018-10-17T14:53:25.956Z,21.17
2018-10-17T14:55:55.908Z,21.23
2018-10-17T14:58:25.791Z,20.33
2018-10-17T15:00:55.954Z,17.73
2018-10-17T15:03:26.092Z,20.40
2018-10-17T15:05:56.124Z,21.77
2018-10-17T15:08:26.057Z,23.67
2018-10-17T15:10:56.372Z,23.17
2018-10-17T15:13:26.467Z,23.43
2018-10-17T15:15:56.480Z,23.33
2018-10-17T15:18:26.616Z,24.87
2018-10-17T15:20:56.513Z,25.13
2018-10-17T15:23:26.356Z,23.10
2018-10-17T15:25:56.388Z,24.37
2018-10-17T15:28:26.404Z,22.50
2018-10-17T15:30:56.384Z,29.70
2018-10-17T15:33:26.492Z,30.23
2018-10-17T15:35:56.430Z,34.43
2018-10-17T15:38:26.696Z,38.27
2018-10-17T15:40:56.653Z,39.70
2018-10-17T15:43:27.279Z,38.10
2018-10-17T15:45:57.511Z,39.10
2018-10-17T15:48:27.379Z,40.87
2018-10-17T15:50:57.228Z,39.77
2018-10-17T15:53:27.255Z,40.40
2018-10-17T15:55:57.269Z,39.43
2018-10-17T15:58:27.253Z,39.17
2018-10-17T16:00:57.807Z,41.10
2018-10-17T16:03:28.101Z,40.40
2018-10-17T16:05:58.321Z,39.80
2018-10-17T16:08:28.501Z,42.63
2018-10-17T16:10:58.416Z,43.47
2018-10-17T16:13:28.381Z,42.80
2018-10-17T16:15:58.338Z,43.53
2018-10-17T16:18:28.302Z,43.50
2018-10-17T16:20:58.536Z,43.33
2018-10-17T16:23:28.516Z,42.77
2018-10-17T16:25:58.626Z,43.43
2018-10-17T16:28:28.541Z,43.30
2018-10-17T16:30:58.550Z,44.10
2018-10-17T16:33:28.527Z,42.63
2018-10-17T16:35:58.747Z,44.03
2018-10-17T16:38:28.729Z,41.20
2018-10-17T16:40:58.945Z,40.50
2018-10-17T16:43:28.736Z,41.37
2018-10-17T16:45:58.765Z,40.87
2018-10-17T16:48:28.948Z,40.33
2018-10-17T16:50:59.037Z,40.10
2018-10-17T16:53:28.953Z,39.00
2018-10-17T16:55:58.870Z,38.50
2018-10-17T16:58:28.916Z,38.13
2018-10-17T17:00:58.726Z,37.43
2018-10-17T17:03:28.776Z,36.10
2018-10-17T17:05:58.788Z,35.70
2018-10-17T17:08:28.871Z,33.37
2018-10-17T17:10:59.075Z,33.77
2018-10-17T17:13:29.038Z,34.27
2018-10-17T17:15:58.984Z,32.37
2018-10-17T17:18:29.053Z,34.93
2018-10-17T17:20:59.176Z,33.83
2018-10-17T17:23:29.168Z,32.60
2018-10-17T17:25:59.179Z,32.87
2018-10-17T17:28:29.124Z,33.60
2018-10-17T17:30:59.389Z,33.60
2018-10-17T17:33:29.665Z,33.43
2018-10-17T17:35:59.704Z,33.47
2018-10-17T17:38:30.388Z,34.23
2018-10-17T17:41:00.337Z,32.97
2018-10-17T17:43:30.238Z,33.27
2018-10-17T17:46:00.258Z,33.40
2018-10-17T17:48:30.720Z,32.27
2018-10-17T17:51:00.762Z,31.50
2018-10-17T17:53:30.771Z,31.27
2018-10-17T17:56:01.026Z,31.87
2018-10-17T17:58:31.049Z,32.77
2018-10-17T18:01:01.021Z,31.67
2018-10-17T18:03:30.950Z,32.20
2018-10-17T18:06:00.838Z,29.93
2018-10-17T18:08:30.838Z,30.27
2018-10-17T18:11:20.500Z,34.00
2018-10-17T18:13:51.037Z,34.87
2018-10-17T18:16:21.147Z,37.07
2018-10-17T18:18:51.204Z,36.50
2018-10-17T18:21:21.281Z,37.80
2018-10-17T18:23:51.351Z,39.03
2018-10-17T18:26:21.213Z,38.23
2018-10-17T18:28:51.421Z,37.17
2018-10-17T18:31:21.355Z,36.50
2018-10-17T18:33:51.579Z,36.73
2018-10-17T18:36:21.609Z,35.53
2018-10-17T18:38:51.625Z,38.33
2018-10-17T18:41:21.506Z,39.27
2018-10-17T18:43:51.422Z,37.33
2018-10-17T18:46:21.432Z,41.00
2018-10-17T18:48:51.240Z,37.23
2018-10-17T18:51:21.376Z,38.73
2018-10-17T18:53:51.220Z,38.33
2018-10-17T18:56:21.106Z,39.10
2018-10-17T18:58:51.043Z,40.07
2018-10-17T19:01:20.979Z,38.63
2018-10-17T19:03:50.714Z,41.00
2018-10-17T19:06:20.547Z,38.23
2018-10-17T19:08:50.444Z,40.57
2018-10-17T19:11:20.420Z,41.83
2018-10-17T19:13:50.260Z,40.00
2018-10-17T19:16:20.116Z,38.43
2018-10-17T19:18:50.211Z,38.10
2018-10-17T19:21:20.069Z,39.80
2018-10-17T19:23:50.221Z,39.60
2018-10-17T19:26:20.855Z,40.37
2018-10-17T19:28:51.065Z,40.93
2018-10-17T19:31:20.871Z,40.67
2018-10-17T19:33:50.646Z,40.97
2018-10-17T19:36:20.643Z,41.20
2018-10-17T19:38:50.577Z,40.67
2018-10-17T19:41:20.520Z,42.13
2018-10-17T19:43:50.693Z,42.70
2018-10-17T19:46:20.551Z,41.90
2018-10-17T19:48:50.448Z,42.03
2018-10-17T19:51:20.332Z,41.73
2018-10-17T19:53:50.365Z,42.40
2018-10-17T19:56:20.290Z,42.97
2018-10-17T19:58:50.529Z,42.20
2018-10-17T20:01:20.852Z,40.97
2018-10-17T20:03:50.789Z,41.90
2018-10-17T20:06:20.653Z,42.67
2018-10-17T20:08:50.667Z,42.70
2018-10-17T20:11:20.593Z,43.27
2018-10-17T20:13:50.615Z,43.90
2018-10-17T20:16:20.560Z,42.77
2018-10-17T20:18:50.641Z,43.10
2018-10-17T20:21:20.552Z,44.40
2018-10-17T20:23:50.561Z,43.30
2018-10-17T20:26:20.532Z,40.83
2018-10-17T20:28:50.357Z,44.40
2018-10-17T20:31:20.087Z,44.33
2018-10-17T20:33:50.162Z,44.57
2018-10-17T20:36:20.047Z,44.73
2018-10-17T20:38:50.263Z,43.03
2018-10-17T20:41:20.495Z,42.00
2018-10-17T20:43:50.460Z,45.30
2018-10-17T20:46:20.253Z,45.13
2018-10-17T20:48:50.290Z,43.47
2018-10-17T20:51:20.588Z,45.33
2018-10-17T20:53:50.544Z,42.97
2018-10-17T20:56:20.549Z,45.90
2018-10-17T20:58:50.257Z,44.70
2018-10-17T21:01:19.995Z,44.40
2018-10-17T21:03:49.861Z,44.00
2018-10-17T21:06:19.857Z,45.67
2018-10-17T21:08:49.850Z,44.60
2018-10-17T21:11:19.588Z,44.37
2018-10-17T21:13:49.359Z,44.97
2018-10-17T21:16:19.294Z,44.37
2018-10-17T21:18:49.120Z,43.83
2018-10-17T21:21:19.089Z,44.53
2018-10-17T21:23:48.836Z,44.23
2018-10-17T21:26:19.124Z,41.53
2018-10-17T21:28:49.132Z,42.23
2018-10-17T21:31:18.950Z,42.93
2018-10-17T21:33:48.756Z,40.10
2018-10-17T21:36:18.546Z,40.27
2018-10-17T21:38:48.393Z,40.53
2018-10-17T21:41:18.375Z,40.20
2018-10-17T21:43:48.366Z,39.70
2018-10-17T21:46:18.241Z,37.57
2018-10-17T21:48:48.151Z,37.90
2018-10-17T21:51:18.079Z,38.23
2018-10-17T21:53:48.073Z,38.10
2018-10-17T21:56:18.032Z,37.33
2018-10-17T21:58:48.072Z,36.73
2018-10-17T22:01:18.223Z,37.90
2018-10-17T22:03:48.276Z,35.23
2018-10-17T22:06:18.087Z,34.73
2018-10-17T22:08:48.152Z,34.20
2018-10-17T22:11:18.262Z,34.37
2018-10-17T22:13:48.100Z,35.10
2018-10-17T22:16:18.023Z,34.00
2018-10-17T22:18:48.185Z,34.70
2018-10-17T22:21:18.315Z,32.77
2018-10-17T22:23:48.191Z,35.37
2018-10-17T22:26:18.287Z,33.73
2018-10-17T22:28:48.223Z,33.80
2018-10-17T22:31:18.052Z,34.23
2018-10-17T22:33:48.181Z,32.77
2018-10-17T22:36:18.062Z,32.70
2018-10-17T22:38:48.116Z,33.47
2018-10-17T22:41:18.142Z,33.90
2018-10-17T22:43:47.916Z,33.00
2018-10-17T22:46:17.981Z,32.13
2018-10-17T22:48:47.852Z,32.70
2018-10-17T22:51:17.947Z,31.07
2018-10-17T22:53:47.794Z,32.87
2018-10-17T22:56:17.702Z,32.93
2018-10-17T22:58:47.593Z,32.63
2018-10-17T23:01:17.872Z,32.23
2018-10-17T23:03:47.839Z,31.07
2018-10-17T23:06:17.655Z,30.93
2018-10-17T23:08:47.729Z,31.87
2018-10-17T23:11:17.592Z,31.77
2018-10-17T23:13:47.680Z,31.13
2018-10-17T23:16:17.706Z,30.37
2018-10-17T23:18:47.795Z,31.30
2018-10-17T23:21:17.849Z,30.10
2018-10-17T23:23:47.851Z,31.00
2018-10-17T23:26:17.893Z,31.53
2018-10-17T23:28:47.705Z,30.23
2018-10-17T23:31:17.675Z,31.73
2018-10-17T23:33:47.669Z,30.37
2018-10-17T23:36:17.583Z,29.97
2018-10-17T23:38:47.347Z,31.23
2018-10-17T23:41:17.444Z,29.30
2018-10-17T23:43:47.810Z,28.13
2018-10-17T23:46:18.120Z,28.83
2018-10-17T23:48:48.092Z,28.93
2018-10-17T23:51:18.025Z,27.97
2018-10-17T23:53:48.162Z,27.33
2018-10-17T23:56:18.378Z,27.40
2018-10-17T23:58:48.254Z,27.80
